Malibu, California
Current Conditions -  °F | °C
As of 3:56 AM on Thursday 29 Jan 2015 (Local Time) from KNTD Reporting Station
Clear Clear  
Wind Chill: 64°   Ceiling: Unl
Heat Index: 64°   Visibility: 10mi
Dew Point: 52°   Wind: 3mph
Humidity: 65%   Direction: 330°NNW
Pressure: 30.04"   Gusts: NA
Location:  34°N, 118.8°W
Report Text: KNTD 291156Z AUTO 33003KT 10SM CLR 18/11 A3004 RMK AO2 SLP175 T01780111 10217 20172 56003 $
Loading
Personal Weather Stations






























Interactive Weather Map New forecast layout! Learn more

10-Day Weather Forecast

Advertisements
Track Severe Weather on mobile